Time;durP1;ratioP1;P1;durP2;ratioP2;P2;SDS_P1;SDS_P2;PMS_P1;PMS_P2;Temp;Humidity;BMP_temperature;BMP_pressure;BME280_temperature;BME280_humidity;BME280_pressure;Samples;Min_cycle;Max_cycle;Signal;HPM_P1;HPM_P2
2021/07/30 00:00:55;;;;;;;5.75;4.68;;;;;;;;;;5022782;28;20026;-76
2021/07/30 00:03:21;;;;;;;7.43;4.90;;;;;;;;;;5027314;28;20369;-76
2021/07/30 00:05:49;;;;;;;6.20;4.13;;;;;;;;;;5014529;28;20520;-76
2021/07/30 00:08:15;;;;;;;6.05;4.28;;;;;;;;;;5014784;28;20036;-76
2021/07/30 00:10:41;;;;;;;5.90;4.10;;;;;;;;;;5014376;28;20125;-76
2021/07/30 00:13:07;;;;;;;4.68;4.05;;;;;;;;;;5015142;28;20026;-76
2021/07/30 00:15:33;;;;;;;5.20;4.03;;;;;;;;;;5034905;28;20025;-76
2021/07/30 00:17:59;;;;;;;6.05;3.92;;;;;;;;;;5035448;28;20064;-75
2021/07/30 00:20:26;;;;;;;4.70;3.97;;;;;;;;;;5034887;28;20030;-75
2021/07/30 00:22:52;;;;;;;6.13;3.83;;;;;;;;;;5035135;28;20485;-75
2021/07/30 00:25:19;;;;;;;6.07;3.85;;;;;;;;;;5035205;28;20095;-75
2021/07/30 00:27:45;;;;;;;8.38;4.55;;;;;;;;;;5025745;28;20549;-75
2021/07/30 00:30:11;;;;;;;5.00;3.97;;;;;;;;;;5035152;28;20025;-75
2021/07/30 00:32:37;;;;;;;5.22;4.18;;;;;;;;;;5035412;28;20026;-76
2021/07/30 00:35:03;;;;;;;5.75;3.80;;;;;;;;;;5034888;28;20022;-75
2021/07/30 00:37:29;;;;;;;5.05;3.78;;;;;;;;;;5035182;28;20051;-75
2021/07/30 00:39:56;;;;;;;4.35;3.67;;;;;;;;;;5034820;28;20029;-75
2021/07/30 00:42:22;;;;;;;5.07;4.05;;;;;;;;;;5034400;28;20493;-76
2021/07/30 00:44:48;;;;;;;6.00;4.18;;;;;;;;;;5017457;28;20021;-75
2021/07/30 00:47:14;;;;;;;6.55;4.30;;;;;;;;;;5034913;28;20029;-75
2021/07/30 00:49:40;;;;;;;4.93;3.92;;;;;;;;;;5017107;28;20018;-75
2021/07/30 00:52:06;;;;;;;7.82;3.92;;;;;;;;;;5034126;28;20067;-75
2021/07/30 00:54:33;;;;;;;5.00;4.50;;;;;;;;;;5034529;28;20105;-75
2021/07/30 00:57:00;;;;;;;4.55;4.15;;;;;;;;;;5034633;28;20112;-75
2021/07/30 00:59:27;;;;;;;6.75;3.78;;;;;;;;;;5034557;28;20082;-75
2021/07/30 01:01:53;;;;;;;5.03;4.22;;;;;;;;;;5027844;28;20033;-75
2021/07/30 01:04:19;;;;;;;6.85;4.07;;;;;;;;;;5034332;28;20057;-75
2021/07/30 01:06:46;;;;;;;5.90;4.03;;;;;;;;;;5033872;28;20026;-74
2021/07/30 01:09:12;;;;;;;4.70;3.72;;;;;;;;;;5033855;28;20024;-75
2021/07/30 01:11:39;;;;;;;5.63;4.07;;;;;;;;;;5033348;28;20056;-75
2021/07/30 01:14:05;;;;;;;6.05;4.07;;;;;;;;;;5033632;28;20045;-75
2021/07/30 01:16:31;;;;;;;4.28;3.72;;;;;;;;;;5033980;28;20029;-75
2021/07/30 01:18:57;;;;;;;5.88;4.28;;;;;;;;;;5033658;28;20018;-75
2021/07/30 01:21:27;;;;;;;6.32;4.20;;;;;;;;;;5032662;28;20025;-75
2021/07/30 01:23:53;;;;;;;4.18;3.78;;;;;;;;;;5032859;28;20025;-75
2021/07/30 01:26:19;;;;;;;4.38;3.70;;;;;;;;;;5034187;28;20034;-75
2021/07/30 01:28:46;;;;;;;4.72;3.85;;;;;;;;;;5034073;28;20439;-75
2021/07/30 01:31:12;;;;;;;3.90;3.60;;;;;;;;;;5033466;28;20091;-75
2021/07/30 01:33:38;;;;;;;7.25;3.97;;;;;;;;;;5034037;28;20014;-75
2021/07/30 01:36:04;;;;;;;7.80;3.83;;;;;;;;;;5034050;28;20030;-75
2021/07/30 01:38:30;;;;;;;4.72;3.50;;;;;;;;;;5033916;28;20087;-75
2021/07/30 01:41:08;;;;;;;7.38;4.25;;;;;;;;;;5033123;28;20033;-75
2021/07/30 01:43:35;;;;;;;6.25;4.28;;;;;;;;;;5033820;28;20051;-75
2021/07/30 01:46:01;;;;;;;15.40;10.25;;;;;;;;;;5033897;28;20502;-75
2021/07/30 01:48:27;;;;;;;20.88;17.50;;;;;;;;;;5033616;28;20112;-75
2021/07/30 01:50:53;;;;;;;24.10;15.88;;;;;;;;;;5033587;28;20477;-75
2021/07/30 01:53:19;;;;;;;17.55;13.80;;;;;;;;;;5033651;28;20079;-75
2021/07/30 01:55:45;;;;;;;16.98;10.93;;;;;;;;;;5033538;28;20141;-75
2021/07/30 01:58:12;;;;;;;11.45;8.25;;;;;;;;;;5033548;28;20079;-75
2021/07/30 02:00:38;;;;;;;19.33;8.45;;;;;;;;;;5030472;28;20025;-75
2021/07/30 02:03:04;;;;;;;14.75;8.15;;;;;;;;;;5024411;28;20057;-75
2021/07/30 02:05:30;;;;;;;19.40;7.32;;;;;;;;;;5017613;28;20032;-75
2021/07/30 02:07:56;;;;;;;11.65;6.28;;;;;;;;;;5030975;28;20075;-75
2021/07/30 02:10:22;;;;;;;6.97;5.22;;;;;;;;;;5031660;28;20049;-75
2021/07/30 02:15:33;;;;;;;6.65;4.47;;;;;;;;;;5031977;28;20049;-75
2021/07/30 02:17:59;;;;;;;7.13;4.30;;;;;;;;;;5031646;28;20029;-75
2021/07/30 02:20:25;;;;;;;7.68;4.60;;;;;;;;;;5031928;28;20599;-75
2021/07/30 02:22:51;;;;;;;6.05;4.18;;;;;;;;;;5031606;28;20045;-75
2021/07/30 02:25:17;;;;;;;4.95;4.13;;;;;;;;;;5022333;28;20022;-75
2021/07/30 02:27:44;;;;;;;4.32;3.90;;;;;;;;;;5031674;28;20477;-75
2021/07/30 02:30:10;;;;;;;5.80;4.00;;;;;;;;;;5021715;28;20020;-75
2021/07/30 02:32:36;;;;;;;6.97;4.30;;;;;;;;;;5031407;28;20029;-75
2021/07/30 02:35:03;;;;;;;4.35;3.83;;;;;;;;;;5031642;28;20020;-75
2021/07/30 02:37:29;;;;;;;5.60;3.85;;;;;;;;;;5031376;28;20025;-75
2021/07/30 02:39:55;;;;;;;5.40;4.10;;;;;;;;;;5031355;28;20025;-76
2021/07/30 02:42:21;;;;;;;5.18;4.00;;;;;;;;;;5030080;28;20032;-75
2021/07/30 02:44:47;;;;;;;10.02;4.20;;;;;;;;;;5031351;28;20077;-75
2021/07/30 02:47:13;;;;;;;6.82;4.00;;;;;;;;;;5026570;28;20030;-75
2021/07/30 02:49:39;;;;;;;5.28;3.63;;;;;;;;;;5031822;28;20018;-76
2021/07/30 02:52:05;;;;;;;5.82;3.80;;;;;;;;;;5028009;28;20025;-75
2021/07/30 02:54:31;;;;;;;5.60;4.00;;;;;;;;;;5032358;28;20404;-76
2021/07/30 02:56:57;;;;;;;4.13;3.72;;;;;;;;;;5031452;28;20033;-75
2021/07/30 02:59:23;;;;;;;7.22;4.50;;;;;;;;;;5032581;28;20032;-75
2021/07/30 03:01:49;;;;;;;4.95;3.75;;;;;;;;;;5033710;28;20160;-75
2021/07/30 03:04:15;;;;;;;7.78;3.92;;;;;;;;;;5034271;28;20029;-75
2021/07/30 03:06:41;;;;;;;6.88;4.68;;;;;;;;;;5033247;28;20033;-75
2021/07/30 03:09:07;;;;;;;8.48;4.22;;;;;;;;;;5034021;28;20044;-75
2021/07/30 03:11:33;;;;;;;4.55;4.00;;;;;;;;;;5031784;28;20021;-75
2021/07/30 03:13:59;;;;;;;7.25;3.92;;;;;;;;;;5032769;28;20048;-75
2021/07/30 03:16:26;;;;;;;5.22;4.35;;;;;;;;;;5035786;28;20021;-75
2021/07/30 03:18:52;;;;;;;5.20;3.92;;;;;;;;;;5051830;28;20021;-75
2021/07/30 03:21:18;;;;;;;6.32;4.65;;;;;;;;;;5051645;28;20021;-75
2021/07/30 03:23:44;;;;;;;7.30;4.10;;;;;;;;;;5052353;28;20418;-75
2021/07/30 03:26:10;;;;;;;4.30;3.88;;;;;;;;;;5052387;28;20104;-75
2021/07/30 03:28:36;;;;;;;4.07;3.63;;;;;;;;;;5033539;28;20036;-74
2021/07/30 03:31:02;;;;;;;5.13;4.60;;;;;;;;;;5031347;28;20021;-74
2021/07/30 03:33:29;;;;;;;4.32;3.58;;;;;;;;;;5032330;28;20438;-74
2021/07/30 03:35:55;;;;;;;5.38;3.67;;;;;;;;;;5031969;28;20029;-74
2021/07/30 03:38:21;;;;;;;7.07;4.00;;;;;;;;;;5032799;28;20057;-74
2021/07/30 03:40:47;;;;;;;4.43;3.90;;;;;;;;;;5014335;28;20033;-74
2021/07/30 03:43:13;;;;;;;6.05;4.00;;;;;;;;;;5031845;28;20026;-74
2021/07/30 03:45:40;;;;;;;8.93;4.35;;;;;;;;;;5032230;28;20026;-74
2021/07/30 03:48:06;;;;;;;4.78;3.67;;;;;;;;;;5032044;28;20132;-74
2021/07/30 03:50:32;;;;;;;5.00;4.22;;;;;;;;;;5031846;28;20026;-74
2021/07/30 03:53:01;;;;;;;5.38;4.15;;;;;;;;;;5031718;28;20021;-74
2021/07/30 03:55:27;;;;;;;5.07;3.92;;;;;;;;;;5032175;28;20056;-74
2021/07/30 03:57:53;;;;;;;8.27;4.05;;;;;;;;;;5031750;28;20022;-74
2021/07/30 04:00:19;;;;;;;6.07;4.35;;;;;;;;;;5031816;28;20040;-74
2021/07/30 04:02:45;;;;;;;7.38;4.38;;;;;;;;;;5031566;28;20025;-74
2021/07/30 04:05:11;;;;;;;4.90;3.90;;;;;;;;;;5032980;28;20128;-74
2021/07/30 04:07:37;;;;;;;4.63;4.13;;;;;;;;;;5042552;28;20473;-74
2021/07/30 04:10:03;;;;;;;4.85;3.85;;;;;;;;;;5020892;28;20025;-74
2021/07/30 04:12:29;;;;;;;6.07;4.20;;;;;;;;;;5031694;28;20056;-74
2021/07/30 04:14:56;;;;;;;3.85;3.55;;;;;;;;;;5049272;28;20037;-74
2021/07/30 04:17:22;;;;;;;6.47;4.07;;;;;;;;;;5040630;28;20461;-74
2021/07/30 04:19:48;;;;;;;6.13;4.28;;;;;;;;;;5031869;28;20424;-74
2021/07/30 04:22:14;;;;;;;5.75;4.15;;;;;;;;;;5038829;28;20074;-74
2021/07/30 04:24:40;;;;;;;4.47;4.03;;;;;;;;;;5051962;28;20021;-75
2021/07/30 04:27:06;;;;;;;4.90;3.83;;;;;;;;;;5045302;28;20261;-75
2021/07/30 04:29:37;;;;;;;5.20;3.88;;;;;;;;;;5014121;28;20029;-75
2021/07/30 04:32:03;;;;;;;5.07;4.35;;;;;;;;;;5034761;28;20037;-75
2021/07/30 04:34:29;;;;;;;5.50;4.32;;;;;;;;;;5035162;28;20381;-75
2021/07/30 04:36:55;;;;;;;7.07;4.60;;;;;;;;;;5034818;28;20026;-75
2021/07/30 04:39:21;;;;;;;4.65;3.70;;;;;;;;;;5043167;28;20104;-75
2021/07/30 04:41:47;;;;;;;5.70;4.32;;;;;;;;;;5054389;28;20079;-75
2021/07/30 04:44:13;;;;;;;5.75;4.75;;;;;;;;;;5054719;28;20484;-75
2021/07/30 04:46:39;;;;;;;6.60;4.28;;;;;;;;;;5054760;28;20048;-75
2021/07/30 04:49:05;;;;;;;5.40;4.18;;;;;;;;;;5054675;28;20018;-74
2021/07/30 04:51:32;;;;;;;7.03;4.00;;;;;;;;;;5054167;28;20158;-74
2021/07/30 04:53:58;;;;;;;7.30;4.53;;;;;;;;;;5054395;28;20017;-74
2021/07/30 04:56:25;;;;;;;4.57;4.10;;;;;;;;;;5054678;28;20036;-74
2021/07/30 04:58:51;;;;;;;5.95;4.28;;;;;;;;;;5054675;28;20021;-74
2021/07/30 05:01:17;;;;;;;4.95;4.38;;;;;;;;;;5054142;28;20573;-74
2021/07/30 05:03:43;;;;;;;5.15;3.97;;;;;;;;;;5036516;28;20404;-74
2021/07/30 05:06:16;;;;;;;4.57;4.18;;;;;;;;;;5054326;28;20029;-74
2021/07/30 05:08:43;;;;;;;4.43;3.85;;;;;;;;;;5054375;28;20028;-74
2021/07/30 05:11:11;;;;;;;5.82;4.30;;;;;;;;;;5053845;28;20392;-74
2021/07/30 05:13:38;;;;;;;4.82;3.95;;;;;;;;;;5044694;28;20033;-74
2021/07/30 05:16:11;;;;;;;7.28;4.53;;;;;;;;;;5016357;28;20484;-75
2021/07/30 05:18:38;;;;;;;4.47;4.07;;;;;;;;;;5033016;28;20049;-75
2021/07/30 05:21:07;;;;;;;5.90;4.50;;;;;;;;;;5033931;28;20508;-75
2021/07/30 05:23:33;;;;;;;6.95;4.55;;;;;;;;;;5034246;28;20021;-75
2021/07/30 05:26:00;;;;;;;5.75;4.55;;;;;;;;;;5034238;28;20053;-75
2021/07/30 05:28:28;;;;;;;5.43;4.22;;;;;;;;;;5033957;28;20036;-74
2021/07/30 05:30:54;;;;;;;5.30;4.30;;;;;;;;;;5016061;28;20432;-75
2021/07/30 05:33:21;;;;;;;5.57;4.32;;;;;;;;;;5034042;28;20423;-75
2021/07/30 05:35:47;;;;;;;5.30;4.30;;;;;;;;;;5034155;28;20423;-74
2021/07/30 05:38:13;;;;;;;6.07;4.03;;;;;;;;;;5034059;28;20022;-73
2021/07/30 05:40:42;;;;;;;6.35;4.53;;;;;;;;;;5033709;28;20124;-74
2021/07/30 05:43:08;;;;;;;6.18;4.53;;;;;;;;;;5032444;28;20037;-75
2021/07/30 05:45:34;;;;;;;5.55;4.32;;;;;;;;;;5034090;28;20033;-75
2021/07/30 05:48:01;;;;;;;6.80;4.40;;;;;;;;;;5033670;28;20021;-74
2021/07/30 05:50:27;;;;;;;6.20;4.10;;;;;;;;;;5034213;28;20026;-74
2021/07/30 05:52:53;;;;;;;6.82;4.13;;;;;;;;;;5033660;28;20025;-74
2021/07/30 05:55:19;;;;;;;5.10;4.28;;;;;;;;;;5033414;28;20035;-74
2021/07/30 05:57:46;;;;;;;6.85;4.35;;;;;;;;;;5033482;28;20028;-74
2021/07/30 06:00:12;;;;;;;5.38;4.60;;;;;;;;;;5033255;28;20488;-74
2021/07/30 06:02:38;;;;;;;6.30;4.43;;;;;;;;;;5033341;28;20026;-75
2021/07/30 06:05:05;;;;;;;9.35;4.88;;;;;;;;;;5033351;28;20025;-74
2021/07/30 06:07:33;;;;;;;8.93;4.38;;;;;;;;;;5033281;28;20036;-74
2021/07/30 06:09:59;;;;;;;4.88;4.20;;;;;;;;;;5033094;28;20025;-74
2021/07/30 06:12:25;;;;;;;4.85;4.20;;;;;;;;;;5032548;28;20026;-74
2021/07/30 06:14:51;;;;;;;10.45;4.88;;;;;;;;;;5031122;28;20049;-74
2021/07/30 06:17:18;;;;;;;5.57;4.03;;;;;;;;;;5024648;28;20025;-75
2021/07/30 06:19:44;;;;;;;4.65;4.10;;;;;;;;;;5033419;28;20033;-75
2021/07/30 06:22:10;;;;;;;6.15;4.47;;;;;;;;;;5032600;28;20029;-74
2021/07/30 06:24:37;;;;;;;8.25;4.93;;;;;;;;;;5033175;28;20048;-74
2021/07/30 06:27:04;;;;;;;5.78;4.53;;;;;;;;;;5031996;28;20034;-76
2021/07/30 06:29:30;;;;;;;6.85;4.72;;;;;;;;;;5032857;28;20026;-76
2021/07/30 06:31:56;;;;;;;9.15;4.40;;;;;;;;;;5032196;28;20112;-76
2021/07/30 06:34:22;;;;;;;9.63;5.40;;;;;;;;;;5032972;28;20034;-76
2021/07/30 06:36:48;;;;;;;6.22;4.53;;;;;;;;;;5041069;28;20056;-76
2021/07/30 06:39:14;;;;;;;5.45;4.60;;;;;;;;;;5037654;28;20029;-76
2021/07/30 06:41:40;;;;;;;6.03;5.20;;;;;;;;;;5040164;28;20488;-76
2021/07/30 06:44:06;;;;;;;9.30;5.05;;;;;;;;;;5034108;28;20116;-76
2021/07/30 06:46:33;;;;;;;7.10;5.20;;;;;;;;;;5032624;28;20021;-76
2021/07/30 06:48:59;;;;;;;7.63;5.28;;;;;;;;;;5046829;28;20078;-75
2021/07/30 06:51:25;;;;;;;9.10;5.68;;;;;;;;;;5044503;28;20117;-75
2021/07/30 06:53:51;;;;;;;11.18;5.43;;;;;;;;;;5031751;28;20064;-76
2021/07/30 06:56:18;;;;;;;5.75;4.80;;;;;;;;;;5031092;28;20028;-76
2021/07/30 06:58:44;;;;;;;6.75;5.72;;;;;;;;;;5031085;28;20060;-76
2021/07/30 07:01:11;;;;;;;9.75;5.53;;;;;;;;;;5047339;28;20025;-76
2021/07/30 07:03:37;;;;;;;10.02;5.15;;;;;;;;;;5019934;28;20120;-75
2021/07/30 07:06:03;;;;;;;10.05;4.72;;;;;;;;;;5039956;28;20022;-75
2021/07/30 07:08:29;;;;;;;7.80;5.35;;;;;;;;;;5025795;28;20040;-75
2021/07/30 07:10:55;;;;;;;11.00;5.22;;;;;;;;;;5027570;28;20033;-75
2021/07/30 07:13:21;;;;;;;9.80;5.13;;;;;;;;;;5032461;28;20037;-75
2021/07/30 07:15:47;;;;;;;7.72;5.18;;;;;;;;;;5008161;28;20026;-76
2021/07/30 07:18:14;;;;;;;8.20;4.78;;;;;;;;;;5026370;28;20110;-75
2021/07/30 07:20:40;;;;;;;9.95;5.40;;;;;;;;;;5021916;28;20095;-75
2021/07/30 07:23:06;;;;;;;6.97;5.20;;;;;;;;;;5031521;28;20508;-76
2021/07/30 07:25:33;;;;;;;9.32;4.90;;;;;;;;;;5049421;28;20035;-76
2021/07/30 07:27:59;;;;;;;11.35;5.35;;;;;;;;;;5032998;28;20567;-75
2021/07/30 07:30:25;;;;;;;9.38;4.95;;;;;;;;;;5032531;28;20028;-74
2021/07/30 07:32:51;;;;;;;7.60;5.00;;;;;;;;;;5033113;28;20158;-74
2021/07/30 07:35:17;;;;;;;9.77;4.80;;;;;;;;;;5041485;28;20531;-74
2021/07/30 07:37:43;;;;;;;6.65;4.72;;;;;;;;;;5035906;28;20029;-74
2021/07/30 07:40:09;;;;;;;8.10;4.82;;;;;;;;;;5032612;28;20034;-74
2021/07/30 07:42:35;;;;;;;11.07;4.97;;;;;;;;;;5038901;28;20385;-74
2021/07/30 07:45:02;;;;;;;5.47;4.50;;;;;;;;;;5036968;28;20026;-74
2021/07/30 07:47:28;;;;;;;6.13;4.68;;;;;;;;;;5040169;28;20063;-74
2021/07/30 07:49:54;;;;;;;7.00;4.38;;;;;;;;;;5037006;28;20052;-74
2021/07/30 07:52:20;;;;;;;5.90;4.07;;;;;;;;;;5020596;28;20501;-74
2021/07/30 07:54:49;;;;;;;7.00;4.20;;;;;;;;;;5040606;28;20017;-74
2021/07/30 07:57:15;;;;;;;5.82;4.22;;;;;;;;;;5032832;28;20072;-74
2021/07/30 07:59:42;;;;;;;6.10;4.28;;;;;;;;;;5017113;28;20480;-74
2021/07/30 08:02:08;;;;;;;6.50;4.00;;;;;;;;;;5039506;28;20029;-74
2021/07/30 08:04:34;;;;;;;4.85;4.15;;;;;;;;;;5020700;28;20025;-74
2021/07/30 08:07:01;;;;;;;5.85;4.30;;;;;;;;;;5015436;28;20025;-74
2021/07/30 08:09:28;;;;;;;5.78;4.13;;;;;;;;;;5040783;28;20146;-74
2021/07/30 08:11:54;;;;;;;8.93;4.65;;;;;;;;;;5033072;28;20025;-74
2021/07/30 08:14:21;;;;;;;5.85;4.45;;;;;;;;;;5032770;28;20038;-75
2021/07/30 08:16:47;;;;;;;9.68;4.95;;;;;;;;;;5033084;28;20036;-78
2021/07/30 08:19:14;;;;;;;4.80;3.83;;;;;;;;;;5032919;28;20487;-74
2021/07/30 08:21:40;;;;;;;6.72;4.20;;;;;;;;;;5014546;28;20040;-74
2021/07/30 08:24:06;;;;;;;7.03;4.40;;;;;;;;;;5032478;28;20021;-75
2021/07/30 08:26:32;;;;;;;7.38;4.50;;;;;;;;;;5015009;28;20029;-75
2021/07/30 08:28:58;;;;;;;7.32;4.18;;;;;;;;;;5040935;28;20474;-75
2021/07/30 08:31:24;;;;;;;5.15;3.97;;;;;;;;;;5045808;28;20492;-75
2021/07/30 08:33:51;;;;;;;5.65;4.03;;;;;;;;;;5022920;28;20071;-74
2021/07/30 08:36:17;;;;;;;8.13;4.43;;;;;;;;;;5032703;28;20024;-74
2021/07/30 08:38:43;;;;;;;7.97;4.18;;;;;;;;;;5033573;28;20052;-74
2021/07/30 08:41:09;;;;;;;4.97;3.85;;;;;;;;;;5049382;28;20040;-74
2021/07/30 08:43:36;;;;;;;6.55;4.07;;;;;;;;;;5034762;28;20057;-74
2021/07/30 08:46:02;;;;;;;5.40;4.03;;;;;;;;;;5032982;28;20029;-75
2021/07/30 08:48:33;;;;;;;6.22;4.07;;;;;;;;;;5032037;28;20124;-74
2021/07/30 08:51:00;;;;;;;4.60;4.05;;;;;;;;;;5033736;28;20555;-75
2021/07/30 08:53:26;;;;;;;6.70;3.75;;;;;;;;;;5037490;28;20111;-74
2021/07/30 08:55:55;;;;;;;4.80;4.03;;;;;;;;;;5043951;28;20447;-74
2021/07/30 08:58:21;;;;;;;4.82;4.32;;;;;;;;;;5041526;28;20040;-74
2021/07/30 09:00:47;;;;;;;6.20;3.80;;;;;;;;;;5032306;28;20128;-75
2021/07/30 09:03:14;;;;;;;4.82;3.92;;;;;;;;;;5031433;28;20037;-75
2021/07/30 09:05:40;;;;;;;5.68;3.80;;;;;;;;;;5033344;28;20545;-75
2021/07/30 09:08:07;;;;;;;5.85;4.07;;;;;;;;;;5037833;28;20473;-75
2021/07/30 09:10:36;;;;;;;6.95;4.57;;;;;;;;;;5035708;28;20025;-75
2021/07/30 09:13:21;;;;;;;5.93;4.20;;;;;;;;;;5028904;28;20056;-75
2021/07/30 09:15:49;;;;;;;7.68;4.13;;;;;;;;;;5040667;28;20365;-74
2021/07/30 09:18:24;;;;;;;8.30;4.63;;;;;;;;;;5037976;28;20112;-74
2021/07/30 09:20:51;;;;;;;7.18;4.78;;;;;;;;;;5013910;28;20064;-74
2021/07/30 09:23:18;;;;;;;6.53;4.43;;;;;;;;;;5033676;28;20037;-74
2021/07/30 09:25:44;;;;;;;7.82;4.55;;;;;;;;;;5036565;28;20408;-74
2021/07/30 09:28:11;;;;;;;7.32;4.07;;;;;;;;;;5040008;28;20083;-76
2021/07/30 09:30:37;;;;;;;6.95;4.10;;;;;;;;;;5032409;28;20183;-75
2021/07/30 09:33:04;;;;;;;6.05;4.30;;;;;;;;;;5040602;28;20041;-75
2021/07/30 09:35:30;;;;;;;7.47;4.40;;;;;;;;;;5032138;28;20025;-74
2021/07/30 09:38:15;;;;;;;8.30;4.60;;;;;;;;;;5034610;28;20025;-74
2021/07/30 09:40:41;;;;;;;6.30;3.83;;;;;;;;;;5012196;28;20033;-75
2021/07/30 09:43:21;;;;;;;8.82;4.30;;;;;;;;;;5030543;28;20040;-75
2021/07/30 09:45:47;;;;;;;6.38;4.30;;;;;;;;;;5029823;28;20512;-75
2021/07/30 09:48:13;;;;;;;5.20;4.55;;;;;;;;;;5030244;28;20029;-75
2021/07/30 09:50:39;;;;;;;7.00;4.18;;;;;;;;;;5038808;28;20456;-75
2021/07/30 09:53:06;;;;;;;6.03;4.07;;;;;;;;;;5029609;28;20460;-75
2021/07/30 09:55:34;;;;;;;6.10;4.38;;;;;;;;;;5030396;28;20039;-75
2021/07/30 09:58:01;;;;;;;5.00;4.10;;;;;;;;;;5008967;28;20033;-75
2021/07/30 10:00:29;;;;;;;5.45;4.10;;;;;;;;;;5035607;28;20033;-75
2021/07/30 10:02:56;;;;;;;6.13;4.57;;;;;;;;;;5023935;28;20099;-75
2021/07/30 10:05:24;;;;;;;5.88;4.03;;;;;;;;;;5028023;28;20204;-75
2021/07/30 10:07:51;;;;;;;5.35;3.90;;;;;;;;;;5042473;28;20053;-75
2021/07/30 10:10:39;;;;;;;9.15;4.97;;;;;;;;;;5033317;28;20550;-74
2021/07/30 10:13:12;;;;;;;6.88;4.50;;;;;;;;;;5035572;28;20025;-74
2021/07/30 10:15:38;;;;;;;;;;;;;;;;;;5035576;28;20022;-75
2021/07/30 10:18:05;;;;;;;8.02;4.55;;;;;;;;;;5030649;28;20011;-74
2021/07/30 10:20:31;;;;;;;5.63;4.93;;;;;;;;;;5030632;28;20063;-74
2021/07/30 10:23:09;;;;;;;5.25;4.63;;;;;;;;;;5039550;28;20021;-74
2021/07/30 10:25:36;;;;;;;6.43;4.90;;;;;;;;;;5029984;28;20123;-74
2021/07/30 10:28:04;;;;;;;6.72;4.85;;;;;;;;;;5030178;28;20408;-75
2021/07/30 10:30:50;;;;;;;6.78;5.22;;;;;;;;;;5016704;28;20536;-74
2021/07/30 10:33:37;;;;;;;11.45;5.78;;;;;;;;;;5040024;28;20538;-74
2021/07/30 10:36:13;;;;;;;6.88;5.35;;;;;;;;;;5039433;28;20021;-74
2021/07/30 10:38:40;;;;;;;8.32;5.82;;;;;;;;;;5034487;28;20084;-74
2021/07/30 10:41:08;;;;;;;9.40;5.68;;;;;;;;;;5041535;28;20041;-74
2021/07/30 10:43:50;;;;;;;9.80;5.65;;;;;;;;;;5012825;28;20079;-75
2021/07/30 10:46:19;;;;;;;9.15;5.80;;;;;;;;;;5035982;28;20040;-74
2021/07/30 10:48:46;;;;;;;10.35;5.68;;;;;;;;;;5026706;28;20017;-74
2021/07/30 10:51:21;;;;;;;9.90;6.20;;;;;;;;;;5033035;28;20037;-74
2021/07/30 10:53:51;;;;;;;9.25;5.82;;;;;;;;;;5040188;28;20010;-74
2021/07/30 10:56:17;;;;;;;9.45;6.10;;;;;;;;;;5028852;28;20029;-75
2021/07/30 10:58:46;;;;;;;8.25;5.68;;;;;;;;;;5038598;28;20029;-75
2021/07/30 11:01:13;;;;;;;9.13;5.80;;;;;;;;;;5034333;28;20583;-74
2021/07/30 11:03:51;;;;;;;9.05;6.13;;;;;;;;;;5037685;28;20116;-74
2021/07/30 11:06:28;;;;;;;10.23;6.03;;;;;;;;;;5031668;28;20489;-74
2021/07/30 11:09:00;;;;;;;11.13;6.10;;;;;;;;;;5035787;28;20490;-74
2021/07/30 11:11:35;;;;;;;9.63;5.67;;;;;;;;;;5012155;28;20087;-74
2021/07/30 11:14:02;;;;;;;11.52;6.28;;;;;;;;;;5036416;28;20624;-75
2021/07/30 11:16:28;;;;;;;11.05;6.97;;;;;;;;;;5029467;28;20022;-75
2021/07/30 11:18:54;;;;;;;8.25;6.32;;;;;;;;;;5030335;28;20029;-75
2021/07/30 11:21:26;;;;;;;9.10;6.15;;;;;;;;;;5028840;28;20029;-74
2021/07/30 11:23:52;;;;;;;7.57;6.28;;;;;;;;;;5031561;28;20024;-74
2021/07/30 11:26:20;;;;;;;9.13;6.55;;;;;;;;;;5032747;28;20034;-75
2021/07/30 11:28:50;;;;;;;9.65;6.85;;;;;;;;;;5022885;28;20029;-74
2021/07/30 11:31:16;;;;;;;15.57;6.68;;;;;;;;;;5033644;28;20053;-74
2021/07/30 11:33:43;;;;;;;10.07;6.72;;;;;;;;;;5034926;28;20086;-75
2021/07/30 11:36:12;;;;;;;10.80;6.40;;;;;;;;;;5038301;28;20032;-75
2021/07/30 11:39:01;;;;;;;14.68;7.00;;;;;;;;;;5026140;28;20025;-75
2021/07/30 11:41:27;;;;;;;9.15;6.85;;;;;;;;;;5034514;28;20087;-75
2021/07/30 11:44:03;;;;;;;8.30;6.47;;;;;;;;;;5040689;28;20021;-75
2021/07/30 11:46:33;;;;;;;9.77;6.53;;;;;;;;;;5027811;28;20033;-75
2021/07/30 11:49:00;;;;;;;10.82;6.45;;;;;;;;;;5041701;28;20037;-76
2021/07/30 11:51:26;;;;;;;9.13;5.75;;;;;;;;;;5027690;28;20021;-75
2021/07/30 11:53:54;;;;;;;9.10;6.72;;;;;;;;;;5038079;28;20021;-75
2021/07/30 11:56:20;;;;;;;11.15;7.28;;;;;;;;;;5035024;28;20021;-75
2021/07/30 11:58:59;;;;;;;8.07;6.57;;;;;;;;;;5042242;28;20075;-75
2021/07/30 12:01:28;;;;;;;10.27;6.32;;;;;;;;;;5045422;28;20511;-75
2021/07/30 12:04:14;;;;;;;9.80;5.93;;;;;;;;;;5030196;28;20101;-75
2021/07/30 12:06:47;;;;;;;8.45;6.20;;;;;;;;;;5033029;28;20033;-75
2021/07/30 12:09:14;;;;;;;10.00;5.88;;;;;;;;;;5040728;28;20387;-75
2021/07/30 12:11:43;;;;;;;8.27;6.40;;;;;;;;;;5032883;28;20032;-75
2021/07/30 12:14:09;;;;;;;11.18;6.45;;;;;;;;;;5032762;28;20049;-75
2021/07/30 12:16:36;;;;;;;7.28;5.65;;;;;;;;;;5040142;28;20030;-75
2021/07/30 12:19:02;;;;;;;8.15;6.40;;;;;;;;;;5038042;28;20025;-75
2021/07/30 12:21:28;;;;;;;13.25;6.30;;;;;;;;;;5035741;28;20036;-74
2021/07/30 12:24:14;;;;;;;9.93;6.28;;;;;;;;;;5014010;28;20029;-75
2021/07/30 12:26:40;;;;;;;11.55;6.93;;;;;;;;;;5032807;28;20037;-75
2021/07/30 12:29:06;;;;;;;10.77;6.68;;;;;;;;;;5022796;28;20079;-75
2021/07/30 12:31:32;;;;;;;10.48;6.20;;;;;;;;;;5033647;28;20136;-75
2021/07/30 12:34:19;;;;;;;10.45;6.53;;;;;;;;;;5045537;28;20048;-75
2021/07/30 12:36:46;;;;;;;8.38;6.10;;;;;;;;;;5035654;28;20021;-75
2021/07/30 12:39:12;;;;;;;8.00;5.85;;;;;;;;;;5048986;28;20496;-75
2021/07/30 12:41:38;;;;;;;7.38;6.10;;;;;;;;;;5018937;28;20031;-75
2021/07/30 12:44:10;;;;;;;9.25;6.03;;;;;;;;;;5013816;28;20030;-75
2021/07/30 12:46:47;;;;;;;8.00;6.17;;;;;;;;;;5032907;28;20365;-75
2021/07/30 12:49:14;;;;;;;7.55;6.45;;;;;;;;;;5029760;28;20029;-75
2021/07/30 12:51:43;;;;;;;9.45;5.82;;;;;;;;;;5033725;28;20075;-75
2021/07/30 12:54:13;;;;;;;10.30;5.88;;;;;;;;;;5035640;28;20033;-75
2021/07/30 12:56:57;;;;;;;8.80;6.10;;;;;;;;;;5041042;28;20103;-76
2021/07/30 12:59:42;;;;;;;7.00;5.90;;;;;;;;;;5047752;28;20022;-76
2021/07/30 13:02:08;;;;;;;8.32;5.78;;;;;;;;;;5013101;28;20389;-75
2021/07/30 13:04:34;;;;;;;8.85;6.10;;;;;;;;;;5035211;28;20061;-75
2021/07/30 13:07:01;;;;;;;7.28;6.25;;;;;;;;;;5040954;28;20439;-75
2021/07/30 13:09:27;;;;;;;9.25;5.50;;;;;;;;;;5033405;28;20025;-75
2021/07/30 13:11:53;;;;;;;8.52;5.28;;;;;;;;;;5035839;28;20028;-75
2021/07/30 13:14:19;;;;;;;10.27;5.72;;;;;;;;;;5033070;28;20037;-75
2021/07/30 13:16:48;;;;;;;10.40;5.93;;;;;;;;;;5032068;28;20029;-75
2021/07/30 13:19:14;;;;;;;8.45;5.53;;;;;;;;;;5021740;28;20029;-75
2021/07/30 13:21:40;;;;;;;9.13;5.22;;;;;;;;;;5031175;28;20400;-75
2021/07/30 13:24:06;;;;;;;7.22;5.68;;;;;;;;;;5031717;28;20546;-75
2021/07/30 13:26:32;;;;;;;7.90;5.70;;;;;;;;;;5034149;28;20384;-75
2021/07/30 13:28:58;;;;;;;10.65;6.60;;;;;;;;;;5014225;28;20026;-75
2021/07/30 13:31:24;;;;;;;6.32;5.38;;;;;;;;;;5033307;28;20040;-75
2021/07/30 13:33:51;;;;;;;9.80;6.00;;;;;;;;;;5031423;28;20396;-76
2021/07/30 13:36:17;;;;;;;6.30;5.43;;;;;;;;;;5030128;28;20033;-75
2021/07/30 13:38:43;;;;;;;6.30;5.70;;;;;;;;;;5033793;28;20022;-75
2021/07/30 13:41:16;;;;;;;9.30;5.57;;;;;;;;;;5031298;28;20119;-75
2021/07/30 13:43:43;;;;;;;6.82;5.80;;;;;;;;;;5037826;28;20029;-75
2021/07/30 13:46:12;;;;;;;5.85;5.20;;;;;;;;;;5029863;28;20029;-75
2021/07/30 13:48:38;;;;;;;8.07;6.20;;;;;;;;;;5034368;28;20108;-75
2021/07/30 13:51:05;;;;;;;9.43;6.63;;;;;;;;;;5030502;28;20036;-75
2021/07/30 13:53:31;;;;;;;10.73;6.20;;;;;;;;;;5023093;28;20044;-75
2021/07/30 13:55:58;;;;;;;10.25;6.60;;;;;;;;;;5034378;28;20025;-75
2021/07/30 13:58:24;;;;;;;6.50;5.85;;;;;;;;;;5035003;28;20091;-75
2021/07/30 14:00:52;;;;;;;9.48;6.05;;;;;;;;;;5010337;28;20041;-75
2021/07/30 14:03:19;;;;;;;12.23;6.22;;;;;;;;;;5028161;28;20399;-76
2021/07/30 14:05:45;;;;;;;8.77;6.10;;;;;;;;;;5030972;28;20104;-75
2021/07/30 14:08:12;;;;;;;11.15;6.22;;;;;;;;;;5032595;28;20052;-75
2021/07/30 14:10:38;;;;;;;8.68;6.10;;;;;;;;;;5033101;28;20030;-75
2021/07/30 14:13:04;;;;;;;8.40;5.82;;;;;;;;;;5033627;28;20092;-75
2021/07/30 14:15:33;;;;;;;12.40;6.43;;;;;;;;;;5024818;28;20032;-75
2021/07/30 14:18:03;;;;;;;8.30;6.53;;;;;;;;;;5049217;28;20075;-76
2021/07/30 14:20:29;;;;;;;8.90;6.05;;;;;;;;;;5030157;28;20276;-76
2021/07/30 14:22:55;;;;;;;7.32;6.07;;;;;;;;;;5031941;28;20024;-76
2021/07/30 14:25:28;;;;;;;7.70;5.70;;;;;;;;;;5064809;28;20399;-73
2021/07/30 14:27:54;;;;;;;8.20;6.10;;;;;;;;;;5049640;28;20029;-74
2021/07/30 14:30:20;;;;;;;8.63;6.20;;;;;;;;;;5046280;28;20029;-74
2021/07/30 14:32:47;;;;;;;9.45;6.25;;;;;;;;;;5047680;28;20104;-74
2021/07/30 14:35:13;;;;;;;7.97;5.97;;;;;;;;;;5044224;28;20597;-74
2021/07/30 14:37:39;;;;;;;10.50;6.72;;;;;;;;;;5046000;28;20037;-74
2021/07/30 14:40:06;;;;;;;8.15;5.95;;;;;;;;;;5045553;28;20033;-74
2021/07/30 14:42:33;;;;;;;11.25;6.40;;;;;;;;;;5046292;28;20389;-76
2021/07/30 14:45:01;;;;;;;8.18;6.47;;;;;;;;;;5050490;28;20029;-76